Fairpartner — PHEC — position and weather

sailwx.info

Track history (hours):
 
Tides and Currents Weather Stations Pressure Air Temp Water Temp Dewpoint Dewpoint Depression Visibility Wind Speed Wind Dir Waves Ship Positions

Fairpartner

Last reported at 2017-Apr-28 12:25 UTC. Time now 2017-Apr-29 13:31 UTC.
Position N 01°16' E 104°08'.

Length 143 m; beam 27 m.

Type: Cargo ship. MMSI: 246466992.

Date/timePositionNaut miles runAvg speedWind from/ knotsBaromVisibWave heightAir tempDewpointWater temp
2017-Apr-28 12:25N 01°16' E 104°08'511.5
2017-Apr-28 12:00N 01°20' E 104°05'510.6
2017-Apr-28 11:30N 01°23' E 104°01'4 8.4
2017-Apr-28 11:00N 01°27' E 104°01'  
2017-Apr-26 03:45N 01°27' E 104°01'0 0.0
2017-Apr-26 03:30N 01°27' E 104°01'1 1.9
2017-Apr-26 03:00N 01°26' E 104°01'10 9.6
2017-Apr-26 01:57N 01°19' E 104°07'0 0.1
2017-Apr-26 00:39N 01°19' E 104°07'0 0.0
2017-Apr-26 00:28N 01°19' E 104°07'15 6.7
2017-Apr-25 22:16N 01°21' E 104°22'  
Track history (hours):
 
Tides and Currents Weather Stations Pressure Air Temp Water Temp Dewpoint Dewpoint Depression Visibility Wind Speed Wind Dir Waves Ship Positions

Fairpartner

Last reported at 2017-Apr-28 12:25 UTC. Time now 2017-Apr-29 13:31 UTC.
Position N 01°16' E 104°08'.

Length 143 m; beam 27 m.

Type: Cargo ship. MMSI: 246466992.

Date/timePositionNaut miles runAvg speedWind from/ knotsBaromVisibWave heightAir tempDewpointWater temp
2017-Apr-28 12:25N 01°16' E 104°08'511.5
2017-Apr-28 12:00N 01°20' E 104°05'510.6
2017-Apr-28 11:30N 01°23' E 104°01'4 8.4
2017-Apr-28 11:00N 01°27' E 104°01'  
2017-Apr-26 03:45N 01°27' E 104°01'0 0.0
2017-Apr-26 03:30N 01°27' E 104°01'1 1.9
2017-Apr-26 03:00N 01°26' E 104°01'10 9.6
2017-Apr-26 01:57N 01°19' E 104°07'0 0.1
2017-Apr-26 00:39N 01°19' E 104°07'0 0.0
2017-Apr-26 00:28N 01°19' E 104°07'15 6.7
2017-Apr-25 22:16N 01°21' E 104°22'  

Dump ship's entire track history